Time;durP1;ratioP1;P1;durP2;ratioP2;P2;SDS_P1;SDS_P2;PMS_P1;PMS_P2;Temp;Humidity;BMP_temperature;BMP_pressure;BME280_temperature;BME280_humidity;BME280_pressure;Samples;Min_cycle;Max_cycle;Signal;HPM_P1;HPM_P2
2021/04/27 00:01:06;;;;;;;16.95;8.55;;;;;;;19.94;53.12;101412.44;5029382;28;20131;-65
2021/04/27 00:03:33;;;;;;;17.48;8.07;;;;;;;19.94;52.89;101420.41;5028907;28;20400;-70
2021/04/27 00:05:59;;;;;;;15.50;7.45;;;;;;;19.95;53.11;101417.56;5045226;28;20370;-64
2021/04/27 00:08:25;;;;;;;18.45;8.23;;;;;;;19.94;52.94;101412.44;5047970;28;20087;-64
2021/04/27 00:10:52;;;;;;;14.45;7.05;;;;;;;19.93;53.06;101411.59;5008074;28;20119;-64
2021/04/27 00:13:17;;;;;;;15.45;8.05;;;;;;;19.93;53.00;101411.59;5044737;28;20049;-64
2021/04/27 00:15:43;;;;;;;14.25;7.18;;;;;;;19.93;53.27;101413.44;5026699;28;20025;-66
2021/04/27 00:18:08;;;;;;;13.90;6.85;;;;;;;19.94;53.13;101415.09;5008015;28;20057;-63
2021/04/27 00:20:34;;;;;;;13.93;6.80;;;;;;;19.94;52.94;101423.09;5024626;28;20041;-63
2021/04/27 00:22:59;;;;;;;15.98;7.65;;;;;;;19.94;53.18;101417.75;5045800;28;20036;-64
2021/04/27 00:25:25;;;;;;;15.85;7.75;;;;;;;19.94;52.79;101412.44;5029656;28;20512;-63
2021/04/27 00:27:52;;;;;;;15.63;7.20;;;;;;;19.94;53.20;101407.09;5047186;28;20033;-64
2021/04/27 00:30:20;;;;;;;13.30;7.00;;;;;;;19.94;52.91;101401.78;5047585;28;20036;-65
2021/04/27 00:32:46;;;;;;;13.82;6.63;;;;;;;19.94;53.23;101394.63;5009782;28;20452;-64
2021/04/27 00:35:13;;;;;;;15.65;6.93;;;;;;;19.93;52.87;101392.97;4999666;28;20048;-64
2021/04/27 00:37:39;;;;;;;13.73;7.13;;;;;;;19.93;52.96;101387.63;5042063;28;20040;-71
2021/04/27 00:40:10;;;;;;;13.07;6.88;;;;;;;19.91;53.28;101389.66;5047159;28;20033;-63
2021/04/27 00:42:39;;;;;;;12.18;6.28;;;;;;;19.94;52.77;101385.81;5047503;28;20037;-66
2021/04/27 00:45:08;;;;;;;13.05;6.85;;;;;;;19.93;52.74;101381.50;5046484;28;20087;-64
2021/04/27 00:47:35;;;;;;;13.40;6.45;;;;;;;19.92;52.80;101378.00;5022795;28;20044;-68
2021/04/27 00:50:00;;;;;;;12.50;6.43;;;;;;;19.93;53.04;101374.31;5032153;28;20037;-64
2021/04/27 00:52:26;;;;;;;13.00;5.93;;;;;;;19.92;52.94;101379.84;5046386;28;20104;-64
2021/04/27 00:54:51;;;;;;;12.20;5.78;;;;;;;19.93;53.14;101376.16;5000477;28;20127;-65
2021/04/27 00:57:19;;;;;;;12.63;6.30;;;;;;;19.92;53.02;101377.19;5047913;28;20037;-63
2021/04/27 00:59:45;;;;;;;13.75;5.95;;;;;;;19.93;52.71;101365.50;5033715;28;20444;-63
2021/04/27 01:02:11;;;;;;;13.40;6.10;;;;;;;19.92;53.01;101366.53;5013580;28;20057;-66
2021/04/27 01:04:36;;;;;;;11.90;5.97;;;;;;;19.91;53.10;101360.38;5048936;28;20104;-66
2021/04/27 01:07:02;;;;;;;11.52;6.03;;;;;;;19.92;52.71;101356.69;5048940;28;20068;-64
2021/04/27 01:09:39;;;;;;;10.60;5.70;;;;;;;19.90;52.79;101352.56;5050260;28;20471;-63
2021/04/27 01:12:12;;;;;;;12.93;5.63;;;;;;;19.92;52.79;101354.03;5046697;28;20495;-64
2021/04/27 01:14:55;;;;;;;9.80;5.65;;;;;;;19.93;52.95;101341.53;5028419;28;20083;-64
2021/04/27 01:17:22;;;;;;;10.45;5.50;;;;;;;19.91;52.66;101344.41;5048061;28;20091;-65
2021/04/27 01:20:04;;;;;;;13.90;5.85;;;;;;;19.90;52.93;101341.94;5056473;28;20514;-66
2021/04/27 01:22:49;;;;;;;12.45;6.07;;;;;;;19.88;52.89;101331.47;5042538;28;20106;-64
2021/04/27 01:25:24;;;;;;;10.50;5.32;;;;;;;19.90;52.74;101340.09;5047066;28;20029;-64
2021/04/27 01:27:50;;;;;;;11.80;5.32;;;;;;;19.90;53.22;101332.09;5040417;28;20048;-68
2021/04/27 01:30:16;;;;;;;10.85;5.30;;;;;;;19.91;53.03;101327.59;5038072;28;20037;-64
2021/04/27 01:32:42;;;;;;;9.93;5.47;;;;;;;19.91;53.29;101320.44;5039763;28;20033;-64
2021/04/27 01:35:09;;;;;;;10.60;5.57;;;;;;;19.93;53.29;101328.22;5028327;28;20565;-65
2021/04/27 01:37:35;;;;;;;11.60;5.45;;;;;;;19.92;52.82;101326.59;5048485;28;20091;-63
2021/04/27 01:40:01;;;;;;;11.85;5.25;;;;;;;19.92;53.21;101316.75;5014408;28;20041;-64
2021/04/27 01:42:27;;;;;;;10.75;5.47;;;;;;;19.93;53.36;101317.59;5030855;28;20033;-63
2021/04/27 01:44:52;;;;;;;10.32;5.30;;;;;;;19.94;53.07;101311.25;5047508;28;20546;-64
2021/04/27 01:47:18;;;;;;;11.80;5.40;;;;;;;19.93;53.48;101318.41;5042802;28;20061;-64
2021/04/27 01:49:45;;;;;;;10.13;5.53;;;;;;;19.95;53.23;101310.22;5048836;28;20495;-64
2021/04/27 01:52:11;;;;;;;11.70;5.60;;;;;;;19.95;53.20;101304.91;5035435;28;20247;-66
2021/04/27 01:54:37;;;;;;;12.43;5.70;;;;;;;19.95;53.44;101307.56;5050176;28;20044;-64
2021/04/27 01:57:03;;;;;;;11.15;5.15;;;;;;;19.94;53.46;101306.75;5049150;28;20088;-64
2021/04/27 01:59:28;;;;;;;13.18;6.07;;;;;;;19.96;53.35;101306.56;5049346;28;20483;-64
2021/04/27 02:01:54;;;;;;;10.98;5.63;;;;;;;19.96;53.65;101303.88;5047329;28;20503;-63
2021/04/27 02:04:24;;;;;;;10.00;5.03;;;;;;;19.96;53.60;101296.72;5031247;28;20037;-64
2021/04/27 02:06:50;;;;;;;10.45;5.20;;;;;;;19.96;53.94;101282.59;5040282;28;20128;-63
2021/04/27 02:09:17;;;;;;;11.77;5.47;;;;;;;19.96;53.97;101278.09;5030079;28;20076;-66
2021/04/27 02:11:45;;;;;;;10.82;5.43;;;;;;;19.96;53.79;101283.41;5059823;28;20166;-63
2021/04/27 02:14:13;;;;;;;9.85;5.60;;;;;;;19.98;53.86;101280.56;5032390;28;20469;-64
2021/04/27 02:16:47;;;;;;;10.20;5.15;;;;;;;19.96;54.04;101272.75;5047535;28;20040;-64
2021/04/27 02:19:14;;;;;;;12.88;6.00;;;;;;;19.96;54.00;101270.09;5047831;28;20461;-65
2021/04/27 02:21:41;;;;;;;10.32;4.93;;;;;;;19.97;54.13;101263.75;5049807;28;20038;-65
2021/04/27 02:24:08;;;;;;;10.70;5.40;;;;;;;19.98;53.89;101259.25;5050675;28;20106;-65
2021/04/27 02:26:35;;;;;;;9.98;4.82;;;;;;;19.97;54.05;101242.44;5044101;28;20451;-64
2021/04/27 02:29:04;;;;;;;11.30;4.90;;;;;;;19.95;53.85;101239.16;5015663;28;20044;-64
2021/04/27 02:31:32;;;;;;;9.65;4.65;;;;;;;19.97;53.83;101237.13;5049187;28;20111;-63
2021/04/27 02:33:59;;;;;;;12.00;5.05;;;;;;;19.98;53.61;101232.63;5031652;28;20543;-63
2021/04/27 02:36:27;;;;;;;10.82;4.72;;;;;;;19.97;53.91;101226.47;5028948;28;20032;-64
2021/04/27 02:38:52;;;;;;;9.30;4.57;;;;;;;19.96;53.83;101226.66;5031717;28;20044;-63
2021/04/27 02:41:17;;;;;;;11.80;4.90;;;;;;;19.97;53.83;101230.97;5050323;28;20052;-65
2021/04/27 02:43:43;;;;;;;9.10;4.38;;;;;;;19.97;53.73;101234.47;5026233;28;20039;-63
2021/04/27 02:46:09;;;;;;;8.88;4.45;;;;;;;19.97;53.80;101237.13;5031001;28;20064;-63
2021/04/27 02:48:34;;;;;;;9.65;4.18;;;;;;;19.96;53.62;101230.16;5014343;28;20519;-64
2021/04/27 02:51:01;;;;;;;9.98;4.43;;;;;;;19.97;53.31;101234.47;5031522;28;20037;-65
2021/04/27 02:53:27;;;;;;;8.90;4.55;;;;;;;19.97;53.88;101220.31;5029152;28;20079;-67
2021/04/27 02:55:53;;;;;;;10.65;4.93;;;;;;;19.97;53.60;101223.00;5021796;28;20078;-64
2021/04/27 02:58:19;;;;;;;9.35;4.15;;;;;;;19.97;53.72;101228.31;5048579;28;20057;-64
2021/04/27 03:00:46;;;;;;;9.13;4.63;;;;;;;19.97;53.47;101212.34;5048117;28;20017;-64
2021/04/27 03:03:12;;;;;;;10.85;4.75;;;;;;;19.97;53.67;101223.00;5048087;28;20037;-64
2021/04/27 03:05:38;;;;;;;8.23;4.28;;;;;;;19.97;53.77;101213.16;5048360;28;20033;-64
2021/04/27 03:08:07;;;;;;;14.82;4.95;;;;;;;19.98;53.56;101221.97;5031237;28;20441;-66
2021/04/27 03:10:33;;;;;;;11.77;4.25;;;;;;;19.97;53.67;101215.00;5047355;28;20060;-65
2021/04/27 03:12:58;;;;;;;8.90;4.13;;;;;;;19.97;54.00;101215.81;5048156;28;20037;-66
2021/04/27 03:15:24;;;;;;;8.50;4.28;;;;;;;19.97;53.93;101212.34;5047080;28;20075;-65
2021/04/27 03:17:50;;;;;;;9.35;3.88;;;;;;;19.98;53.83;101208.66;5030211;28;20094;-63
2021/04/27 03:20:16;;;;;;;8.55;3.95;;;;;;;19.97;53.60;101205.19;5049017;28;20438;-71
2021/04/27 03:22:42;;;;;;;9.00;4.10;;;;;;;19.98;53.61;101200.66;5030209;28;20123;-64
2021/04/27 03:25:10;;;;;;;8.73;4.07;;;;;;;19.97;53.41;101199.84;5048840;28;20044;-64
2021/04/27 03:27:36;;;;;;;9.55;3.97;;;;;;;19.97;53.64;101186.53;5047960;28;20063;-65
2021/04/27 03:30:04;;;;;;;8.88;4.60;;;;;;;19.97;53.70;101191.03;5048169;28;20065;-68
2021/04/27 03:32:29;;;;;;;9.82;4.43;;;;;;;19.97;53.44;101191.03;5046824;28;20041;-64
2021/04/27 03:34:55;;;;;;;7.90;3.50;;;;;;;19.98;53.63;101195.34;5012206;28;20403;-63
2021/04/27 03:37:20;;;;;;;10.15;3.33;;;;;;;19.97;53.53;101193.69;5047835;28;20091;-66
2021/04/27 03:39:46;;;;;;;9.00;3.78;;;;;;;19.97;53.63;101188.38;5048328;28;20067;-64
2021/04/27 03:42:11;;;;;;;7.18;3.72;;;;;;;19.97;53.34;101185.72;5029806;28;20090;-65
2021/04/27 03:44:37;;;;;;;6.75;3.33;;;;;;;19.96;53.54;101189.38;5030427;28;20043;-64
2021/04/27 03:47:04;;;;;;;8.00;3.60;;;;;;;19.98;53.47;101184.69;5048274;28;20124;-65
2021/04/27 03:49:30;;;;;;;8.63;3.65;;;;;;;19.97;53.18;101172.41;5047462;28;20116;-63
2021/04/27 03:51:56;;;;;;;6.28;3.00;;;;;;;19.97;53.41;101167.06;5014158;28;20476;-65
2021/04/27 03:54:22;;;;;;;7.53;3.38;;;;;;;19.97;53.14;101167.06;5047168;28;20075;-64
2021/04/27 03:56:48;;;;;;;6.53;3.33;;;;;;;19.97;53.16;101164.41;5026208;28;20033;-67
2021/04/27 03:59:14;;;;;;;7.50;3.13;;;;;;;19.97;53.40;101167.06;5048450;28;20426;-64
2021/04/27 04:01:39;;;;;;;7.25;3.20;;;;;;;19.98;53.35;101166.88;5050467;28;20055;-64
2021/04/27 04:04:05;;;;;;;8.20;3.50;;;;;;;19.96;53.22;101155.59;5028716;28;20045;-64
2021/04/27 04:06:31;;;;;;;7.68;3.53;;;;;;;19.96;53.22;101163.59;5007103;28;20037;-64
2021/04/27 04:08:56;;;;;;;5.57;2.80;;;;;;;19.97;53.40;101156.41;5010742;28;20045;-65
2021/04/27 04:11:22;;;;;;;5.93;2.88;;;;;;;19.96;53.07;101168.09;5041154;28;20400;-64
2021/04/27 04:13:47;;;;;;;5.88;2.78;;;;;;;19.96;53.43;101157.44;4995119;28;20048;-64
2021/04/27 04:16:13;;;;;;;5.90;2.92;;;;;;;19.96;53.32;101152.94;5022229;28;20048;-66
2021/04/27 04:18:38;;;;;;;6.20;3.25;;;;;;;19.95;53.20;101143.28;5028749;28;20041;-64
2021/04/27 04:21:04;;;;;;;7.55;3.30;;;;;;;19.96;52.91;101155.59;5047413;28;20037;-67
2021/04/27 04:23:29;;;;;;;6.65;3.30;;;;;;;19.95;53.04;101148.63;5048288;28;20440;-63
2021/04/27 04:25:56;;;;;;;6.47;3.15;;;;;;;19.95;53.38;101137.16;5032533;28;20067;-63
2021/04/27 04:28:21;;;;;;;5.90;2.75;;;;;;;19.96;53.21;101149.44;5051723;28;20410;-66
2021/04/27 04:30:47;;;;;;;5.20;2.85;;;;;;;19.95;53.04;101148.63;5050542;28;20037;-64
2021/04/27 04:33:12;;;;;;;5.15;2.50;;;;;;;19.96;53.16;101141.47;5051363;28;20147;-63
2021/04/27 04:35:39;;;;;;;5.65;2.67;;;;;;;19.95;53.18;101143.28;5032873;28;20056;-65
2021/04/27 04:38:05;;;;;;;5.72;2.90;;;;;;;19.96;53.34;101136.13;5033727;28;20471;-64
2021/04/27 04:40:31;;;;;;;6.38;2.85;;;;;;;19.96;53.18;101141.47;5052467;28;20037;-63
2021/04/27 04:42:57;;;;;;;5.90;2.78;;;;;;;19.96;53.29;101134.28;5033188;28;20128;-64
2021/04/27 04:45:25;;;;;;;5.18;2.63;;;;;;;19.96;53.06;101125.47;5051140;28;20119;-66
2021/04/27 04:47:51;;;;;;;6.10;2.60;;;;;;;19.95;53.25;101127.31;5050781;28;20037;-65
2021/04/27 04:50:16;;;;;;;7.60;3.00;;;;;;;19.95;53.04;101121.16;5052337;28;20040;-66
2021/04/27 04:52:42;;;;;;;4.75;2.70;;;;;;;19.95;53.20;101119.34;5032113;28;20404;-65
2021/04/27 04:55:09;;;;;;;6.13;2.63;;;;;;;19.96;53.15;101128.97;5032410;28;20068;-66
2021/04/27 04:57:37;;;;;;;5.22;2.30;;;;;;;19.96;53.09;101130.81;5024303;28;20104;-67
2021/04/27 05:00:06;;;;;;;6.47;2.85;;;;;;;19.95;52.94;101131.81;5050853;28;20029;-64
2021/04/27 05:02:32;;;;;;;5.03;2.83;;;;;;;19.96;52.96;101133.47;5039340;28;20045;-64
2021/04/27 05:04:57;;;;;;;5.10;2.50;;;;;;;19.94;53.15;101131.00;5047997;28;20798;-63
2021/04/27 05:07:25;;;;;;;5.00;2.42;;;;;;;19.94;52.67;101131.00;5030046;28;20052;-66
2021/04/27 05:09:50;;;;;;;5.72;2.55;;;;;;;19.94;52.79;101124.84;5031959;28;20041;-65
2021/04/27 05:12:16;;;;;;;5.65;2.85;;;;;;;19.93;52.74;101126.69;5039551;28;20491;-64
2021/04/27 05:14:43;;;;;;;5.68;2.47;;;;;;;19.95;52.96;101129.16;5031687;28;20043;-66
2021/04/27 05:17:10;;;;;;;4.90;2.38;;;;;;;19.95;52.77;101129.16;5049141;28;20044;-64
2021/04/27 05:19:36;;;;;;;4.95;2.50;;;;;;;19.95;52.72;101127.31;5049394;28;20033;-63
2021/04/27 05:22:04;;;;;;;4.57;2.42;;;;;;;19.95;52.86;101131.81;5047991;28;20069;-64
2021/04/27 05:24:30;;;;;;;3.75;2.13;;;;;;;19.95;52.70;101132.66;5048761;28;20037;-63
2021/04/27 05:26:56;;;;;;;5.03;2.60;;;;;;;19.95;52.84;101127.31;5048166;28;20056;-66
2021/04/27 05:29:22;;;;;;;4.22;2.25;;;;;;;19.94;52.63;101124.84;5047977;28;20052;-65
2021/04/27 05:31:48;;;;;;;5.47;2.60;;;;;;;19.96;52.84;101128.16;5041461;28;20052;-64
2021/04/27 05:34:15;;;;;;;4.07;2.00;;;;;;;19.95;52.80;101121.16;5045703;28;20048;-64
2021/04/27 05:36:41;;;;;;;5.70;2.22;;;;;;;19.94;52.56;101111.53;5049069;28;20033;-66
2021/04/27 05:39:07;;;;;;;4.20;2.03;;;;;;;19.95;52.53;101110.53;5049404;28;20043;-65
2021/04/27 05:41:33;;;;;;;4.03;2.10;;;;;;;19.94;52.37;101116.88;5049567;28;20040;-64
2021/04/27 05:43:58;;;;;;;4.00;2.17;;;;;;;19.94;52.67;101117.69;5032378;28;20036;-64
2021/04/27 05:46:23;;;;;;;4.47;2.42;;;;;;;19.94;52.70;101122.19;5048607;28;20029;-65
2021/04/27 05:48:49;;;;;;;3.78;2.20;;;;;;;19.94;52.73;101124.84;5050138;28;20073;-64
2021/04/27 05:51:14;;;;;;;4.07;2.33;;;;;;;19.93;52.25;101123.22;5029823;28;20061;-64
2021/04/27 05:53:40;;;;;;;6.25;2.63;;;;;;;19.92;52.72;101122.38;5021346;28;20033;-64
2021/04/27 05:56:05;;;;;;;4.70;2.20;;;;;;;19.92;52.55;101121.56;5035318;28;20033;-63
2021/04/27 05:58:31;;;;;;;3.33;1.77;;;;;;;19.92;52.64;101111.72;5050431;28;20029;-64
2021/04/27 06:00:56;;;;;;;3.90;1.92;;;;;;;19.92;52.51;101110.91;5036969;28;20056;-67
2021/04/27 06:03:22;;;;;;;4.25;2.10;;;;;;;19.92;52.38;101111.72;5028680;28;20390;-64
2021/04/27 06:05:47;;;;;;;4.13;1.95;;;;;;;19.93;52.45;101107.22;5055105;28;20041;-65
2021/04/27 06:08:13;;;;;;;4.22;1.95;;;;;;;19.92;52.52;101102.94;5021592;28;21434;-65
2021/04/27 06:10:38;;;;;;;5.15;1.83;;;;;;;19.92;52.23;101110.91;5004374;28;20515;-66
2021/04/27 06:13:04;;;;;;;3.85;1.88;;;;;;;19.92;52.20;101097.59;5048419;28;20041;-64
2021/04/27 06:15:30;;;;;;;4.95;2.00;;;;;;;19.92;52.40;101101.09;5038793;28;20676;-64
2021/04/27 06:17:55;;;;;;;3.78;1.80;;;;;;;19.93;52.21;101101.91;5059618;28;20477;-63
2021/04/27 06:20:21;;;;;;;4.07;1.83;;;;;;;19.92;52.03;101097.59;5031456;28;20043;-63
2021/04/27 06:22:46;;;;;;;4.20;2.03;;;;;;;19.92;52.08;101089.63;5049319;28;20033;-64
2021/04/27 06:25:12;;;;;;;3.80;1.73;;;;;;;19.93;52.33;101093.91;5050122;28;20033;-64
2021/04/27 06:27:38;;;;;;;3.88;1.90;;;;;;;19.92;52.25;101094.94;5014843;28;20059;-63
2021/04/27 06:30:08;;;;;;;3.03;1.80;;;;;;;19.91;52.56;101088.78;5049485;28;20118;-64
2021/04/27 06:32:33;;;;;;;3.55;1.90;;;;;;;19.92;52.51;101093.09;5027251;28;20033;-65
2021/04/27 06:34:59;;;;;;;4.22;1.58;;;;;;;19.91;52.31;101088.78;5049135;28;20040;-66
2021/04/27 06:37:26;;;;;;;4.28;1.92;;;;;;;19.91;52.71;101086.13;5017180;28;20041;-63
2021/04/27 06:39:52;;;;;;;5.28;2.13;;;;;;;19.91;52.41;101090.63;5049026;28;20040;-63
2021/04/27 06:42:18;;;;;;;3.88;1.90;;;;;;;19.92;52.85;101081.63;5031933;28;20067;-63
2021/04/27 06:44:44;;;;;;;6.40;2.10;;;;;;;19.92;52.88;101094.94;5048013;28;20021;-63
2021/04/27 06:47:10;;;;;;;3.72;1.77;;;;;;;19.93;53.32;101096.59;5027368;28;20040;-64
2021/04/27 06:49:36;;;;;;;4.18;1.65;;;;;;;19.92;53.58;101092.28;5031085;28;20124;-63
2021/04/27 06:52:03;;;;;;;5.15;1.92;;;;;;;19.93;53.43;101091.25;5042406;28;20040;-64
2021/04/27 06:54:29;;;;;;;4.82;1.70;;;;;;;19.93;53.80;101081.44;5047727;28;20159;-66
2021/04/27 06:56:54;;;;;;;5.00;2.05;;;;;;;19.94;53.91;101079.59;5041853;28;20127;-65
2021/04/27 06:59:21;;;;;;;4.47;1.60;;;;;;;19.96;54.22;101082.88;5012493;28;20481;-65
2021/04/27 07:01:47;;;;;;;3.88;1.85;;;;;;;19.95;54.17;101078.56;5036111;28;20044;-67
2021/04/27 07:04:13;;;;;;;4.28;1.90;;;;;;;19.97;54.74;101071.22;5037370;28;20037;-64
2021/04/27 07:06:39;;;;;;;4.95;2.10;;;;;;;19.98;55.15;101070.19;5012212;28;20413;-66
2021/04/27 07:09:04;;;;;;;5.22;1.90;;;;;;;19.99;55.36;101066.50;5039533;28;20129;-65
2021/04/27 07:11:31;;;;;;;5.38;1.90;;;;;;;19.99;55.41;101072.66;5047580;28;20186;-65
2021/04/27 07:13:58;;;;;;;6.18;2.10;;;;;;;20.00;55.27;101065.50;5035787;28;20033;-63
2021/04/27 07:16:24;;;;;;;6.05;2.10;;;;;;;20.00;55.55;101057.50;5042715;28;20037;-66
2021/04/27 07:18:50;;;;;;;7.63;2.00;;;;;;;20.00;55.67;101058.31;5039971;28;20396;-66
2021/04/27 07:21:19;;;;;;;4.40;1.58;;;;;;;20.00;55.49;101058.31;5039022;28;20041;-63
2021/04/27 07:23:45;;;;;;;7.00;1.90;;;;;;;20.00;56.21;101061.00;5044364;28;20041;-63
2021/04/27 07:26:10;;;;;;;7.80;2.03;;;;;;;20.00;55.95;101060.16;5012755;28;20033;-63
2021/04/27 07:28:35;;;;;;;7.72;1.90;;;;;;;20.00;56.39;101055.66;5022221;28;20124;-66
2021/04/27 07:31:02;;;;;;;9.52;1.90;;;;;;;20.01;55.88;101048.50;5036739;28;20040;-68
2021/04/27 07:33:27;;;;;;;4.38;1.95;;;;;;;20.01;56.37;101049.31;5031324;28;20049;-67
2021/04/27 07:35:53;;;;;;;7.38;2.03;;;;;;;20.01;56.46;101041.34;5025757;28;20123;-70
2021/04/27 07:38:18;;;;;;;9.48;2.05;;;;;;;20.02;56.54;101048.31;5027465;28;20060;-64
2021/04/27 07:40:44;;;;;;;9.85;2.00;;;;;;;20.03;56.63;101038.47;5022087;28;20036;-64
2021/04/27 07:43:09;;;;;;;6.20;2.00;;;;;;;20.03;57.05;101041.97;5037726;28;20038;-65
2021/04/27 07:45:35;;;;;;;6.32;2.15;;;;;;;20.04;56.58;101035.66;5036953;28;20029;-68
2021/04/27 07:48:05;;;;;;;7.68;2.38;;;;;;;20.04;56.70;101032.97;5029412;28;20060;-64
2021/04/27 07:50:32;;;;;;;5.70;1.80;;;;;;;20.06;56.72;101026.63;5045769;28;20441;-62
2021/04/27 07:52:58;;;;;;;7.43;1.50;;;;;;;20.05;56.55;101025.81;5047042;28;20036;-66
2021/04/27 07:55:23;;;;;;;10.82;2.53;;;;;;;20.06;56.48;101026.63;5043650;28;20112;-67
2021/04/27 07:57:49;;;;;;;6.13;2.05;;;;;;;20.05;55.96;101025.81;5040617;28;20057;-69
2021/04/27 08:00:16;;;;;;;10.40;1.80;;;;;;;20.04;55.88;101022.31;5036918;28;20516;-68
2021/04/27 17:19:00;;;;;;;68.05;26.88;;;;;;;18.88;45.19;100830.44;5883317;23;20030;-72
2021/04/27 17:21:27;;;;;;;69.85;29.13;;;;;;;18.93;45.69;100833.31;4917403;29;20067;-68
2021/04/27 17:23:53;;;;;;;66.18;27.13;;;;;;;18.97;45.97;100840.75;4924527;23;20169;-68
2021/04/27 17:26:19;;;;;;;63.10;25.27;;;;;;;19.01;46.56;100834.03;4907040;29;20051;-64
2021/04/27 17:28:44;;;;;;;50.75;22.83;;;;;;;19.06;46.61;100834.25;4909618;29;20047;-68
2021/04/27 17:31:10;;;;;;;52.03;21.40;;;;;;;19.10;47.06;100830.22;4927300;29;20031;-65
2021/04/27 17:33:36;;;;;;;42.95;18.73;;;;;;;19.16;47.01;100828.63;4921700;29;20054;-66
2021/04/27 17:36:01;;;;;;;43.08;17.75;;;;;;;19.19;47.23;100825.56;4928853;29;20424;-66
2021/04/27 17:38:27;;;;;;;39.20;16.30;;;;;;;19.23;47.46;100831.31;4924621;29;20509;-67
2021/04/27 17:40:52;;;;;;;34.60;15.52;;;;;;;19.25;47.79;100823.97;4929386;29;20043;-65
2021/04/27 17:43:18;;;;;;;33.30;16.08;;;;;;;19.28;47.50;100831.56;4927320;29;20039;-65
2021/04/27 17:45:43;;;;;;;38.03;14.65;;;;;;;19.30;47.83;100834.84;4923007;29;20066;-66
2021/04/27 17:48:09;;;;;;;34.13;14.68;;;;;;;19.32;47.98;100835.47;4923382;29;20435;-65
2021/04/27 17:50:35;;;;;;;36.70;14.27;;;;;;;19.33;48.23;100835.28;4933749;29;20118;-65
2021/04/27 17:53:02;;;;;;;37.85;15.23;;;;;;;19.35;48.48;100830.59;4900700;29;20119;-66
2021/04/27 17:55:28;;;;;;;38.20;18.92;;;;;;;19.36;49.04;100829.56;4932053;29;20106;-65
2021/04/27 17:57:54;;;;;;;51.88;20.50;;;;;;;19.38;49.27;100838.19;4925429;29;20452;-66
2021/04/27 18:00:22;;;;;;;37.80;19.02;;;;;;;19.39;49.41;100833.69;4929116;29;20131;-66
2021/04/27 18:02:50;;;;;;;37.83;16.92;;;;;;;19.39;49.59;100834.50;4930623;29;20100;-67
2021/04/27 18:05:17;;;;;;;29.30;15.20;;;;;;;19.41;49.50;100827.16;4929987;29;20114;-66
2021/04/27 18:07:43;;;;;;;34.15;15.50;;;;;;;19.42;49.75;100830.66;4931219;29;20044;-67
2021/04/27 18:10:10;;;;;;;39.72;15.40;;;;;;;19.42;49.47;100831.47;4924439;29;20039;-66
2021/04/27 18:12:36;;;;;;;37.40;15.48;;;;;;;19.43;50.06;100832.28;4929565;29;20150;-65
2021/04/27 18:15:02;;;;;;;31.27;15.02;;;;;;;19.44;50.43;100836.59;4931663;29;20043;-66
2021/04/27 18:17:28;;;;;;;27.58;13.93;;;;;;;19.46;50.63;100839.88;4912881;29;20046;-69
2021/04/27 18:19:53;;;;;;;29.08;13.32;;;;;;;19.47;50.68;100836.19;4928741;29;20123;-67
2021/04/27 18:22:19;;;;;;;33.35;13.52;;;;;;;19.49;50.84;100836.81;4931814;29;20734;-65
2021/04/27 18:24:49;;;;;;;33.17;12.38;;;;;;;19.48;51.23;100832.53;4928393;29;20486;-65
2021/04/27 18:27:17;;;;;;;38.30;14.40;;;;;;;19.53;51.34;100835.41;4930050;29;20109;-66
2021/04/27 18:29:43;;;;;;;38.40;13.57;;;;;;;19.53;51.88;100835.41;4928398;29;20040;-66
2021/04/27 18:32:09;;;;;;;40.13;13.05;;;;;;;19.55;51.84;100841.38;4930883;29;20039;-65
2021/04/27 18:34:36;;;;;;;41.85;13.60;;;;;;;19.55;52.32;100833.41;4932274;29;20083;-65
2021/04/27 18:37:02;;;;;;;34.03;12.77;;;;;;;19.56;52.54;100837.69;4920123;29;20407;-65
2021/04/27 18:39:28;;;;;;;31.00;12.80;;;;;;;19.56;52.88;100851.00;4927889;29;20036;-66
2021/04/27 18:41:55;;;;;;;30.05;11.23;;;;;;;19.55;52.71;100841.38;4914937;29;20121;-65
2021/04/27 18:44:22;;;;;;;29.50;11.88;;;;;;;19.56;52.86;100844.88;4928057;29;20406;-65
2021/04/27 18:46:48;;;;;;;28.70;11.15;;;;;;;19.55;52.41;100843.22;4931646;29;20093;-65
2021/04/27 18:49:13;;;;;;;26.10;11.60;;;;;;;19.55;52.72;100844.03;4929952;29;20542;-65
2021/04/27 18:51:40;;;;;;;30.65;11.85;;;;;;;19.55;52.73;100841.38;4929435;29;20378;-66
2021/04/27 18:54:06;;;;;;;29.42;10.93;;;;;;;19.55;52.25;100841.38;4931044;29;20070;-65
2021/04/27 18:56:32;;;;;;;34.63;10.73;;;;;;;19.56;52.58;100844.88;4932432;29;20035;-65
2021/04/27 18:58:58;;;;;;;26.98;10.43;;;;;;;19.55;52.56;100845.88;4918447;29;20157;-67
2021/04/27 19:01:23;;;;;;;37.83;10.80;;;;;;;19.56;52.60;100844.88;4931744;29;20131;-67
2021/04/27 19:03:49;;;;;;;28.02;9.90;;;;;;;19.55;52.62;100844.03;4929141;29;20095;-66
2021/04/27 19:06:16;;;;;;;28.60;9.75;;;;;;;19.57;52.85;100843.88;4926432;29;20095;-66
2021/04/27 19:08:41;;;;;;;25.83;10.18;;;;;;;19.57;52.81;100852.69;4930953;29;20047;-66
2021/04/27 19:11:07;;;;;;;33.17;10.13;;;;;;;19.57;52.90;100854.53;4928799;29;20484;-68
2021/04/27 19:13:33;;;;;;;29.23;10.55;;;;;;;19.57;52.52;100852.69;4922809;29;21288;-66
2021/04/27 19:15:58;;;;;;;29.25;9.60;;;;;;;19.58;52.52;100856.16;4930718;29;20058;-65
2021/04/27 19:18:26;;;;;;;27.90;9.73;;;;;;;19.57;52.74;100852.69;4907453;29;20075;-66
2021/04/27 19:20:51;;;;;;;22.73;8.93;;;;;;;19.58;52.74;100854.31;4930532;29;20055;-65
2021/04/27 19:23:16;;;;;;;28.50;9.10;;;;;;;19.58;53.07;100851.66;4931443;29;20071;-66
2021/04/27 19:25:42;;;;;;;27.75;8.40;;;;;;;19.57;52.62;100854.53;4928864;29;20091;-66
2021/04/27 19:28:08;;;;;;;21.10;8.40;;;;;;;19.56;52.84;100866.97;4930357;29;20211;-66
2021/04/27 19:30:33;;;;;;;22.25;9.00;;;;;;;19.57;52.87;100862.50;4923394;29;20040;-66
2021/04/27 19:33:00;;;;;;;21.63;8.88;;;;;;;19.56;53.02;100861.66;4905504;29;20070;-66
2021/04/27 19:35:27;;;;;;;20.25;8.52;;;;;;;19.57;52.69;100865.97;4930184;29;20035;-66
2021/04/27 19:37:52;;;;;;;25.52;9.20;;;;;;;19.56;52.67;100863.50;4929227;29;20042;-67
2021/04/27 19:40:19;;;;;;;22.90;7.53;;;;;;;19.56;52.53;100860.81;4929919;29;20419;-66
2021/04/27 19:42:46;;;;;;;20.55;8.13;;;;;;;19.58;52.63;100864.16;4910381;29;20043;-66
2021/04/27 19:45:12;;;;;;;21.70;7.93;;;;;;;19.58;52.91;100864.16;4929533;29;20223;-65
2021/04/27 19:47:39;;;;;;;25.13;7.65;;;;;;;19.58;52.89;100870.28;4929285;29;20497;-64
2021/04/27 19:50:06;;;;;;;29.58;8.85;;;;;;;19.59;52.73;100877.25;4928017;29;20089;-64
2021/04/27 19:52:32;;;;;;;18.83;8.10;;;;;;;19.60;52.66;100880.72;4930000;29;20035;-65
2021/04/27 19:54:58;;;;;;;23.63;8.48;;;;;;;19.60;53.05;100875.41;4919125;29;20128;-64
2021/04/27 19:57:23;;;;;;;22.58;8.82;;;;;;;19.60;52.97;100876.22;4927930;29;20035;-64
2021/04/27 19:59:49;;;;;;;22.35;8.35;;;;;;;19.60;53.04;100881.56;4909708;29;20055;-64
2021/04/27 20:02:14;;;;;;;25.58;8.55;;;;;;;19.61;52.93;100888.53;4908341;29;20039;-66
2021/04/27 20:04:39;;;;;;;23.02;9.35;;;;;;;19.60;52.75;100886.88;4919932;29;20043;-66
2021/04/27 20:07:05;;;;;;;23.08;9.63;;;;;;;19.61;53.15;100887.69;4921041;29;20032;-65
2021/04/27 20:09:30;;;;;;;19.25;8.73;;;;;;;19.60;53.05;100886.06;4911981;29;20043;-65
2021/04/27 20:11:56;;;;;;;24.85;9.93;;;;;;;19.61;52.90;100893.03;4928085;29;20051;-66
2021/04/27 20:14:21;;;;;;;25.88;9.98;;;;;;;19.61;52.76;100891.19;4928735;29;21426;-65
2021/04/27 20:16:47;;;;;;;21.92;8.90;;;;;;;19.61;52.72;100896.50;4927603;29;20054;-64
2021/04/27 20:19:15;;;;;;;25.52;9.80;;;;;;;19.61;53.22;100891.19;4917158;29;20069;-64
2021/04/27 20:21:42;;;;;;;20.45;9.80;;;;;;;19.61;52.92;100899.16;4924363;29;20066;-63
2021/04/27 20:24:07;;;;;;;25.15;9.77;;;;;;;19.61;53.14;100899.16;4926039;29;20499;-66
2021/04/27 20:26:33;;;;;;;23.35;9.75;;;;;;;19.61;52.93;100907.16;4925130;29;20040;-64
2021/04/27 20:28:58;;;;;;;23.85;10.73;;;;;;;19.61;52.92;100901.81;4926015;29;20099;-65
2021/04/27 20:31:24;;;;;;;31.52;11.98;;;;;;;19.61;53.27;100906.31;4917042;29;20098;-67